sensor_id;sensor_type;location;lat;lon;timestamp;P1;durP1;ratioP1;P2;durP2;ratioP2
7613;SDS011;3848;42.016;23.098;2022-10-30T00:00:26;19.30;;;18.00;;
7613;SDS011;3848;42.016;23.098;2022-10-30T00:02:53;18.57;;;17.33;;
7613;SDS011;3848;42.016;23.098;2022-10-30T00:05:20;17.60;;;16.40;;
7613;SDS011;3848;42.016;23.098;2022-10-30T00:07:47;18.43;;;17.10;;
7613;SDS011;3848;42.016;23.098;2022-10-30T00:10:14;17.50;;;16.47;;
7613;SDS011;3848;42.016;23.098;2022-10-30T00:12:44;18.00;;;16.77;;
7613;SDS011;3848;42.016;23.098;2022-10-30T00:15:11;17.50;;;16.43;;
7613;SDS011;3848;42.016;23.098;2022-10-30T00:17:38;18.10;;;17.00;;
7613;SDS011;3848;42.016;23.098;2022-10-30T00:20:05;16.80;;;15.80;;
7613;SDS011;3848;42.016;23.098;2022-10-30T00:22:33;17.47;;;16.47;;
7613;SDS011;3848;42.016;23.098;2022-10-30T00:25:00;18.30;;;17.00;;
7613;SDS011;3848;42.016;23.098;2022-10-30T00:27:27;17.87;;;16.77;;
7613;SDS011;3848;42.016;23.098;2022-10-30T00:29:55;17.03;;;15.80;;
7613;SDS011;3848;42.016;23.098;2022-10-30T00:32:22;17.33;;;16.23;;
7613;SDS011;3848;42.016;23.098;2022-10-30T00:34:49;17.63;;;15.90;;
7613;SDS011;3848;42.016;23.098;2022-10-30T00:37:16;17.37;;;15.87;;
7613;SDS011;3848;42.016;23.098;2022-10-30T00:39:43;18.77;;;16.97;;
7613;SDS011;3848;42.016;23.098;2022-10-30T00:42:10;17.50;;;16.40;;
7613;SDS011;3848;42.016;23.098;2022-10-30T00:44:40;19.37;;;17.97;;
7613;SDS011;3848;42.016;23.098;2022-10-30T00:47:14;19.53;;;18.23;;
7613;SDS011;3848;42.016;23.098;2022-10-30T00:49:52;20.10;;;18.70;;
7613;SDS011;3848;42.016;23.098;2022-10-30T00:52:23;20.23;;;19.03;;
7613;SDS011;3848;42.016;23.098;2022-10-30T00:54:52;22.53;;;21.03;;
7613;SDS011;3848;42.016;23.098;2022-10-30T00:57:22;25.47;;;23.60;;
7613;SDS011;3848;42.016;23.098;2022-10-30T00:59:49;25.50;;;24.00;;
7613;SDS011;3848;42.016;23.098;2022-10-30T01:02:18;26.77;;;24.87;;
7613;SDS011;3848;42.016;23.098;2022-10-30T01:04:47;25.77;;;24.17;;
7613;SDS011;3848;42.016;23.098;2022-10-30T01:07:16;26.60;;;24.90;;
7613;SDS011;3848;42.016;23.098;2022-10-30T01:09:43;26.70;;;25.17;;
7613;SDS011;3848;42.016;23.098;2022-10-30T01:12:12;26.80;;;25.13;;
7613;SDS011;3848;42.016;23.098;2022-10-30T01:14:40;26.60;;;25.07;;
7613;SDS011;3848;42.016;23.098;2022-10-30T01:17:17;27.87;;;26.07;;
7613;SDS011;3848;42.016;23.098;2022-10-30T01:20:05;27.10;;;25.47;;
7613;SDS011;3848;42.016;23.098;2022-10-30T01:22:44;27.07;;;25.40;;
7613;SDS011;3848;42.016;23.098;2022-10-30T01:25:28;26.47;;;24.87;;
7613;SDS011;3848;42.016;23.098;2022-10-30T01:28:16;27.13;;;25.43;;
7613;SDS011;3848;42.016;23.098;2022-10-30T01:31:02;26.37;;;24.77;;
7613;SDS011;3848;42.016;23.098;2022-10-30T01:33:46;27.23;;;25.43;;
7613;SDS011;3848;42.016;23.098;2022-10-30T01:36:25;26.43;;;24.63;;
7613;SDS011;3848;42.016;23.098;2022-10-30T01:38:59;24.37;;;22.77;;
7613;SDS011;3848;42.016;23.098;2022-10-30T01:41:28;23.33;;;21.93;;
7613;SDS011;3848;42.016;23.098;2022-10-30T01:43:55;23.23;;;21.93;;
7613;SDS011;3848;42.016;23.098;2022-10-30T01:46:31;22.10;;;20.70;;
7613;SDS011;3848;42.016;23.098;2022-10-30T01:49:25;23.63;;;22.13;;
7613;SDS011;3848;42.016;23.098;2022-10-30T01:52:12;24.47;;;22.93;;
7613;SDS011;3848;42.016;23.098;2022-10-30T01:54:45;26.77;;;24.97;;
7613;SDS011;3848;42.016;23.098;2022-10-30T01:57:22;25.60;;;23.90;;
7613;SDS011;3848;42.016;23.098;2022-10-30T02:00:00;26.27;;;24.27;;
7613;SDS011;3848;42.016;23.098;2022-10-30T02:02:30;26.83;;;25.03;;
7613;SDS011;3848;42.016;23.098;2022-10-30T02:04:59;25.43;;;23.63;;
7613;SDS011;3848;42.016;23.098;2022-10-30T02:07:26;25.60;;;23.67;;
7613;SDS011;3848;42.016;23.098;2022-10-30T02:09:53;24.77;;;23.07;;
7613;SDS011;3848;42.016;23.098;2022-10-30T02:12:21;25.83;;;23.93;;
7613;SDS011;3848;42.016;23.098;2022-10-30T02:14:49;27.30;;;25.50;;
7613;SDS011;3848;42.016;23.098;2022-10-30T02:17:20;26.77;;;25.07;;
7613;SDS011;3848;42.016;23.098;2022-10-30T02:19:47;27.50;;;25.80;;
7613;SDS011;3848;42.016;23.098;2022-10-30T02:22:15;26.40;;;24.70;;
7613;SDS011;3848;42.016;23.098;2022-10-30T02:24:43;27.23;;;25.53;;
7613;SDS011;3848;42.016;23.098;2022-10-30T02:27:10;27.60;;;25.47;;
7613;SDS011;3848;42.016;23.098;2022-10-30T02:29:36;25.83;;;24.23;;
7613;SDS011;3848;42.016;23.098;2022-10-30T02:32:03;25.97;;;24.27;;
7613;SDS011;3848;42.016;23.098;2022-10-30T02:34:30;27.97;;;26.07;;
7613;SDS011;3848;42.016;23.098;2022-10-30T02:36:57;26.50;;;24.70;;
7613;SDS011;3848;42.016;23.098;2022-10-30T02:39:25;27.07;;;24.97;;
7613;SDS011;3848;42.016;23.098;2022-10-30T02:41:52;26.43;;;24.53;;
7613;SDS011;3848;42.016;23.098;2022-10-30T02:44:18;24.47;;;22.50;;
7613;SDS011;3848;42.016;23.098;2022-10-30T02:46:45;23.63;;;22.10;;
7613;SDS011;3848;42.016;23.098;2022-10-30T02:49:12;26.80;;;25.00;;
7613;SDS011;3848;42.016;23.098;2022-10-30T02:51:39;27.73;;;26.03;;
7613;SDS011;3848;42.016;23.098;2022-10-30T02:54:06;27.03;;;25.30;;
7613;SDS011;3848;42.016;23.098;2022-10-30T02:56:34;27.57;;;25.70;;
7613;SDS011;3848;42.016;23.098;2022-10-30T02:59:01;26.90;;;25.17;;
7613;SDS011;3848;42.016;23.098;2022-10-30T03:01:27;29.10;;;26.17;;
7613;SDS011;3848;42.016;23.098;2022-10-30T03:03:54;26.70;;;25.03;;
7613;SDS011;3848;42.016;23.098;2022-10-30T03:06:21;27.30;;;25.67;;
7613;SDS011;3848;42.016;23.098;2022-10-30T03:08:48;29.07;;;27.20;;
7613;SDS011;3848;42.016;23.098;2022-10-30T03:11:15;31.77;;;29.67;;
7613;SDS011;3848;42.016;23.098;2022-10-30T03:13:45;30.73;;;28.63;;
7613;SDS011;3848;42.016;23.098;2022-10-30T03:16:14;35.10;;;32.87;;
7613;SDS011;3848;42.016;23.098;2022-10-30T03:18:42;38.93;;;36.70;;
7613;SDS011;3848;42.016;23.098;2022-10-30T03:21:10;38.33;;;35.97;;
7613;SDS011;3848;42.016;23.098;2022-10-30T03:23:38;36.97;;;34.83;;
7613;SDS011;3848;42.016;23.098;2022-10-30T03:26:05;37.40;;;35.17;;
7613;SDS011;3848;42.016;23.098;2022-10-30T03:28:32;37.07;;;34.80;;
7613;SDS011;3848;42.016;23.098;2022-10-30T03:31:01;38.27;;;36.07;;
7613;SDS011;3848;42.016;23.098;2022-10-30T03:33:29;38.27;;;35.77;;
7613;SDS011;3848;42.016;23.098;2022-10-30T03:35:56;35.57;;;33.47;;
7613;SDS011;3848;42.016;23.098;2022-10-30T03:38:23;37.07;;;34.33;;
7613;SDS011;3848;42.016;23.098;2022-10-30T03:40:51;37.57;;;35.03;;
7613;SDS011;3848;42.016;23.098;2022-10-30T03:43:19;38.57;;;35.97;;
7613;SDS011;3848;42.016;23.098;2022-10-30T03:45:47;38.33;;;35.70;;
7613;SDS011;3848;42.016;23.098;2022-10-30T03:48:15;38.03;;;35.43;;
7613;SDS011;3848;42.016;23.098;2022-10-30T03:50:43;38.63;;;36.40;;
7613;SDS011;3848;42.016;23.098;2022-10-30T03:53:11;30.53;;;28.43;;
7613;SDS011;3848;42.016;23.098;2022-10-30T03:55:38;25.23;;;23.73;;
7613;SDS011;3848;42.016;23.098;2022-10-30T03:58:06;23.90;;;22.43;;
7613;SDS011;3848;42.016;23.098;2022-10-30T04:00:33;21.57;;;20.00;;
7613;SDS011;3848;42.016;23.098;2022-10-30T04:03:01;22.43;;;21.23;;
7613;SDS011;3848;42.016;23.098;2022-10-30T04:05:33;25.70;;;24.00;;
7613;SDS011;3848;42.016;23.098;2022-10-30T04:08:00;24.70;;;23.10;;
7613;SDS011;3848;42.016;23.098;2022-10-30T04:10:29;25.10;;;23.50;;
7613;SDS011;3848;42.016;23.098;2022-10-30T04:12:58;24.50;;;22.70;;
7613;SDS011;3848;42.016;23.098;2022-10-30T04:15:26;25.93;;;24.27;;
7613;SDS011;3848;42.016;23.098;2022-10-30T04:17:53;25.77;;;23.87;;
7613;SDS011;3848;42.016;23.098;2022-10-30T04:20:20;25.83;;;24.07;;
7613;SDS011;3848;42.016;23.098;2022-10-30T04:22:53;25.63;;;23.93;;
7613;SDS011;3848;42.016;23.098;2022-10-30T04:25:21;25.73;;;24.20;;
7613;SDS011;3848;42.016;23.098;2022-10-30T04:27:48;27.27;;;25.50;;
7613;SDS011;3848;42.016;23.098;2022-10-30T04:30:16;28.13;;;26.37;;
7613;SDS011;3848;42.016;23.098;2022-10-30T04:32:45;33.17;;;31.00;;
7613;SDS011;3848;42.016;23.098;2022-10-30T04:35:12;35.87;;;33.37;;
7613;SDS011;3848;42.016;23.098;2022-10-30T04:37:39;37.60;;;35.13;;
7613;SDS011;3848;42.016;23.098;2022-10-30T04:40:08;31.80;;;29.87;;
7613;SDS011;3848;42.016;23.098;2022-10-30T04:42:36;31.70;;;29.83;;
7613;SDS011;3848;42.016;23.098;2022-10-30T04:45:03;36.20;;;33.53;;
7613;SDS011;3848;42.016;23.098;2022-10-30T04:47:30;33.37;;;31.03;;
7613;SDS011;3848;42.016;23.098;2022-10-30T04:49:57;34.37;;;32.27;;
7613;SDS011;3848;42.016;23.098;2022-10-30T04:52:23;35.60;;;33.50;;
7613;SDS011;3848;42.016;23.098;2022-10-30T04:54:50;36.07;;;33.43;;
7613;SDS011;3848;42.016;23.098;2022-10-30T04:57:18;33.70;;;31.77;;
7613;SDS011;3848;42.016;23.098;2022-10-30T04:59:45;36.13;;;34.03;;
7613;SDS011;3848;42.016;23.098;2022-10-30T05:02:12;35.30;;;33.10;;
7613;SDS011;3848;42.016;23.098;2022-10-30T05:04:39;33.33;;;31.40;;
7613;SDS011;3848;42.016;23.098;2022-10-30T05:07:06;31.43;;;29.47;;
7613;SDS011;3848;42.016;23.098;2022-10-30T05:09:32;32.70;;;30.73;;
7613;SDS011;3848;42.016;23.098;2022-10-30T05:11:59;33.10;;;30.80;;
7613;SDS011;3848;42.016;23.098;2022-10-30T05:14:28;34.63;;;32.57;;
7613;SDS011;3848;42.016;23.098;2022-10-30T05:16:55;36.80;;;33.77;;
7613;SDS011;3848;42.016;23.098;2022-10-30T05:19:22;35.47;;;33.27;;
7613;SDS011;3848;42.016;23.098;2022-10-30T05:21:49;36.23;;;34.03;;
7613;SDS011;3848;42.016;23.098;2022-10-30T05:24:16;34.60;;;31.93;;
7613;SDS011;3848;42.016;23.098;2022-10-30T05:26:43;36.20;;;33.80;;
7613;SDS011;3848;42.016;23.098;2022-10-30T05:29:10;36.57;;;34.17;;
7613;SDS011;3848;42.016;23.098;2022-10-30T05:31:39;34.67;;;32.57;;
7613;SDS011;3848;42.016;23.098;2022-10-30T05:34:06;33.87;;;31.87;;
7613;SDS011;3848;42.016;23.098;2022-10-30T05:36:32;34.33;;;32.17;;
7613;SDS011;3848;42.016;23.098;2022-10-30T05:38:59;33.40;;;30.97;;
7613;SDS011;3848;42.016;23.098;2022-10-30T05:41:27;33.77;;;31.77;;
7613;SDS011;3848;42.016;23.098;2022-10-30T05:43:54;33.97;;;31.73;;
7613;SDS011;3848;42.016;23.098;2022-10-30T05:46:21;32.53;;;30.43;;
7613;SDS011;3848;42.016;23.098;2022-10-30T05:48:49;34.57;;;32.27;;
7613;SDS011;3848;42.016;23.098;2022-10-30T05:51:16;34.90;;;32.80;;
7613;SDS011;3848;42.016;23.098;2022-10-30T05:53:42;35.90;;;33.57;;
7613;SDS011;3848;42.016;23.098;2022-10-30T05:56:09;34.67;;;32.30;;
7613;SDS011;3848;42.016;23.098;2022-10-30T05:58:36;35.07;;;32.73;;
7613;SDS011;3848;42.016;23.098;2022-10-30T06:01:04;39.30;;;36.73;;
7613;SDS011;3848;42.016;23.098;2022-10-30T06:03:31;37.30;;;34.97;;
7613;SDS011;3848;42.016;23.098;2022-10-30T06:05:59;32.43;;;30.23;;
7613;SDS011;3848;42.016;23.098;2022-10-30T06:08:26;27.00;;;25.03;;
7613;SDS011;3848;42.016;23.098;2022-10-30T06:10:53;24.30;;;22.60;;
7613;SDS011;3848;42.016;23.098;2022-10-30T06:13:20;24.07;;;22.57;;
7613;SDS011;3848;42.016;23.098;2022-10-30T06:15:47;25.33;;;23.53;;
7613;SDS011;3848;42.016;23.098;2022-10-30T06:18:14;23.57;;;22.10;;
7613;SDS011;3848;42.016;23.098;2022-10-30T06:20:40;24.50;;;22.73;;
7613;SDS011;3848;42.016;23.098;2022-10-30T06:23:09;25.60;;;23.87;;
7613;SDS011;3848;42.016;23.098;2022-10-30T06:25:36;24.57;;;22.97;;
7613;SDS011;3848;42.016;23.098;2022-10-30T06:28:03;24.73;;;23.03;;
7613;SDS011;3848;42.016;23.098;2022-10-30T06:30:30;24.17;;;22.33;;
7613;SDS011;3848;42.016;23.098;2022-10-30T06:32:57;23.43;;;21.93;;
7613;SDS011;3848;42.016;23.098;2022-10-30T06:35:25;22.47;;;21.07;;
7613;SDS011;3848;42.016;23.098;2022-10-30T06:37:53;24.53;;;22.70;;
7613;SDS011;3848;42.016;23.098;2022-10-30T06:40:22;24.87;;;22.93;;
7613;SDS011;3848;42.016;23.098;2022-10-30T06:42:49;26.00;;;23.63;;
7613;SDS011;3848;42.016;23.098;2022-10-30T06:45:18;26.47;;;24.57;;
7613;SDS011;3848;42.016;23.098;2022-10-30T06:47:46;29.77;;;26.77;;
7613;SDS011;3848;42.016;23.098;2022-10-30T06:50:13;27.17;;;25.20;;
7613;SDS011;3848;42.016;23.098;2022-10-30T06:52:41;26.27;;;24.17;;
7613;SDS011;3848;42.016;23.098;2022-10-30T06:55:08;24.20;;;22.37;;
7613;SDS011;3848;42.016;23.098;2022-10-30T06:57:37;22.97;;;21.17;;
7613;SDS011;3848;42.016;23.098;2022-10-30T07:00:05;23.07;;;20.90;;
7613;SDS011;3848;42.016;23.098;2022-10-30T07:02:33;22.17;;;20.37;;
7613;SDS011;3848;42.016;23.098;2022-10-30T07:05:00;22.60;;;20.87;;
7613;SDS011;3848;42.016;23.098;2022-10-30T07:07:27;23.57;;;21.97;;
7613;SDS011;3848;42.016;23.098;2022-10-30T07:09:54;22.63;;;21.20;;
7613;SDS011;3848;42.016;23.098;2022-10-30T07:12:21;22.53;;;20.87;;
7613;SDS011;3848;42.016;23.098;2022-10-30T07:14:49;24.57;;;22.57;;
7613;SDS011;3848;42.016;23.098;2022-10-30T07:17:16;23.20;;;21.80;;
7613;SDS011;3848;42.016;23.098;2022-10-30T07:19:42;22.90;;;21.50;;
7613;SDS011;3848;42.016;23.098;2022-10-30T07:22:09;23.80;;;21.53;;
7613;SDS011;3848;42.016;23.098;2022-10-30T07:24:36;21.73;;;20.23;;
7613;SDS011;3848;42.016;23.098;2022-10-30T07:27:03;21.70;;;20.37;;
7613;SDS011;3848;42.016;23.098;2022-10-30T07:29:29;21.47;;;19.90;;
7613;SDS011;3848;42.016;23.098;2022-10-30T07:31:58;21.93;;;20.50;;
7613;SDS011;3848;42.016;23.098;2022-10-30T07:34:24;24.83;;;22.57;;
7613;SDS011;3848;42.016;23.098;2022-10-30T07:36:51;23.53;;;21.77;;
7613;SDS011;3848;42.016;23.098;2022-10-30T07:39:18;23.47;;;21.80;;
7613;SDS011;3848;42.016;23.098;2022-10-30T07:41:47;20.97;;;19.63;;
7613;SDS011;3848;42.016;23.098;2022-10-30T07:44:13;22.53;;;20.93;;
7613;SDS011;3848;42.016;23.098;2022-10-30T07:46:40;21.63;;;20.20;;
7613;SDS011;3848;42.016;23.098;2022-10-30T07:49:08;22.93;;;20.93;;
7613;SDS011;3848;42.016;23.098;2022-10-30T07:51:35;20.80;;;19.20;;
7613;SDS011;3848;42.016;23.098;2022-10-30T07:54:02;20.13;;;18.63;;
7613;SDS011;3848;42.016;23.098;2022-10-30T07:56:29;22.67;;;20.47;;
7613;SDS011;3848;42.016;23.098;2022-10-30T07:58:56;19.00;;;17.83;;
7613;SDS011;3848;42.016;23.098;2022-10-30T08:01:22;18.13;;;16.60;;
7613;SDS011;3848;42.016;23.098;2022-10-30T08:03:49;18.63;;;17.23;;
7613;SDS011;3848;42.016;23.098;2022-10-30T08:06:17;17.50;;;16.10;;
7613;SDS011;3848;42.016;23.098;2022-10-30T08:08:44;17.63;;;16.03;;
7613;SDS011;3848;42.016;23.098;2022-10-30T08:11:11;17.23;;;15.83;;
7613;SDS011;3848;42.016;23.098;2022-10-30T08:13:37;17.60;;;16.30;;
7613;SDS011;3848;42.016;23.098;2022-10-30T08:16:04;17.30;;;16.20;;
7613;SDS011;3848;42.016;23.098;2022-10-30T08:18:31;17.80;;;16.17;;
7613;SDS011;3848;42.016;23.098;2022-10-30T08:20:59;17.20;;;16.07;;
7613;SDS011;3848;42.016;23.098;2022-10-30T08:23:27;17.50;;;16.20;;
7613;SDS011;3848;42.016;23.098;2022-10-30T08:25:55;18.80;;;16.57;;
7613;SDS011;3848;42.016;23.098;2022-10-30T08:28:24;17.23;;;15.93;;
7613;SDS011;3848;42.016;23.098;2022-10-30T08:30:51;18.27;;;16.93;;
7613;SDS011;3848;42.016;23.098;2022-10-30T08:33:18;18.13;;;16.70;;
7613;SDS011;3848;42.016;23.098;2022-10-30T08:35:48;18.80;;;17.30;;
7613;SDS011;3848;42.016;23.098;2022-10-30T08:38:15;17.17;;;16.00;;
7613;SDS011;3848;42.016;23.098;2022-10-30T08:40:44;18.33;;;16.93;;
7613;SDS011;3848;42.016;23.098;2022-10-30T08:43:11;20.57;;;18.53;;
7613;SDS011;3848;42.016;23.098;2022-10-30T08:45:38;21.07;;;19.30;;
7613;SDS011;3848;42.016;23.098;2022-10-30T08:48:05;19.73;;;18.53;;
7613;SDS011;3848;42.016;23.098;2022-10-30T08:50:33;21.47;;;19.47;;
7613;SDS011;3848;42.016;23.098;2022-10-30T08:53:00;20.70;;;18.83;;
7613;SDS011;3848;42.016;23.098;2022-10-30T08:55:28;21.53;;;20.00;;
7613;SDS011;3848;42.016;23.098;2022-10-30T08:57:57;21.50;;;19.93;;
7613;SDS011;3848;42.016;23.098;2022-10-30T09:00:24;23.43;;;21.60;;
7613;SDS011;3848;42.016;23.098;2022-10-30T09:02:51;23.17;;;21.67;;
7613;SDS011;3848;42.016;23.098;2022-10-30T09:05:18;24.37;;;23.00;;
7613;SDS011;3848;42.016;23.098;2022-10-30T09:07:45;23.90;;;22.33;;
7613;SDS011;3848;42.016;23.098;2022-10-30T09:10:13;19.90;;;18.50;;
7613;SDS011;3848;42.016;23.098;2022-10-30T09:12:40;20.10;;;18.60;;
7613;SDS011;3848;42.016;23.098;2022-10-30T09:15:09;19.50;;;18.37;;
7613;SDS011;3848;42.016;23.098;2022-10-30T09:17:36;20.10;;;18.90;;
7613;SDS011;3848;42.016;23.098;2022-10-30T09:20:04;22.00;;;20.20;;
7613;SDS011;3848;42.016;23.098;2022-10-30T09:22:31;21.90;;;20.33;;
7613;SDS011;3848;42.016;23.098;2022-10-30T09:24:58;20.93;;;19.53;;
7613;SDS011;3848;42.016;23.098;2022-10-30T09:27:25;20.60;;;19.20;;
7613;SDS011;3848;42.016;23.098;2022-10-30T09:29:52;21.63;;;20.27;;
7613;SDS011;3848;42.016;23.098;2022-10-30T09:32:20;24.17;;;22.53;;
7613;SDS011;3848;42.016;23.098;2022-10-30T09:34:47;23.20;;;21.83;;
7613;SDS011;3848;42.016;23.098;2022-10-30T09:37:13;26.73;;;24.63;;
7613;SDS011;3848;42.016;23.098;2022-10-30T09:39:40;28.10;;;26.40;;
7613;SDS011;3848;42.016;23.098;2022-10-30T09:48:39;33.07;;;31.07;;
7613;SDS011;3848;42.016;23.098;2022-10-30T09:51:24;33.57;;;31.47;;
7613;SDS011;3848;42.016;23.098;2022-10-30T09:54:04;35.80;;;33.60;;
7613;SDS011;3848;42.016;23.098;2022-10-30T09:56:42;38.13;;;35.73;;
7613;SDS011;3848;42.016;23.098;2022-10-30T09:59:13;37.93;;;35.37;;
7613;SDS011;3848;42.016;23.098;2022-10-30T10:01:53;38.87;;;36.17;;
7613;SDS011;3848;42.016;23.098;2022-10-30T10:04:29;41.97;;;38.73;;
7613;SDS011;3848;42.016;23.098;2022-10-30T10:07:03;43.33;;;40.70;;
7613;SDS011;3848;42.016;23.098;2022-10-30T10:09:42;42.07;;;39.57;;
7613;SDS011;3848;42.016;23.098;2022-10-30T10:12:11;45.90;;;43.13;;
7613;SDS011;3848;42.016;23.098;2022-10-30T10:14:52;44.17;;;41.57;;
7613;SDS011;3848;42.016;23.098;2022-10-30T10:17:23;40.33;;;37.70;;
7613;SDS011;3848;42.016;23.098;2022-10-30T10:19:57;43.53;;;40.93;;
7613;SDS011;3848;42.016;23.098;2022-10-30T10:22:26;40.27;;;37.87;;
7613;SDS011;3848;42.016;23.098;2022-10-30T10:24:59;43.20;;;40.70;;
7613;SDS011;3848;42.016;23.098;2022-10-30T10:27:33;46.27;;;43.23;;
7613;SDS011;3848;42.016;23.098;2022-10-30T10:30:14;41.37;;;38.87;;
7613;SDS011;3848;42.016;23.098;2022-10-30T10:32:50;41.10;;;38.40;;
7613;SDS011;3848;42.016;23.098;2022-10-30T10:35:40;40.03;;;37.73;;
7613;SDS011;3848;42.016;23.098;2022-10-30T10:38:20;38.93;;;36.53;;
7613;SDS011;3848;42.016;23.098;2022-10-30T10:40:59;38.93;;;36.63;;
7613;SDS011;3848;42.016;23.098;2022-10-30T10:43:36;33.17;;;31.13;;
7613;SDS011;3848;42.016;23.098;2022-10-30T10:46:18;35.73;;;33.53;;
7613;SDS011;3848;42.016;23.098;2022-10-30T10:49:05;36.70;;;34.27;;
7613;SDS011;3848;42.016;23.098;2022-10-30T10:51:48;30.07;;;28.20;;
7613;SDS011;3848;42.016;23.098;2022-10-30T10:54:20;31.57;;;29.77;;
7613;SDS011;3848;42.016;23.098;2022-10-30T10:56:52;29.80;;;28.03;;
7613;SDS011;3848;42.016;23.098;2022-10-30T10:59:21;27.17;;;25.57;;
7613;SDS011;3848;42.016;23.098;2022-10-30T11:01:55;24.50;;;23.00;;
7613;SDS011;3848;42.016;23.098;2022-10-30T11:04:29;25.47;;;23.57;;
7613;SDS011;3848;42.016;23.098;2022-10-30T11:07:02;23.87;;;22.47;;
7613;SDS011;3848;42.016;23.098;2022-10-30T11:09:43;24.97;;;23.10;;
7613;SDS011;3848;42.016;23.098;2022-10-30T11:12:12;25.17;;;23.67;;
7613;SDS011;3848;42.016;23.098;2022-10-30T11:14:39;24.27;;;22.90;;
7613;SDS011;3848;42.016;23.098;2022-10-30T11:17:10;24.23;;;22.63;;
7613;SDS011;3848;42.016;23.098;2022-10-30T11:19:44;25.37;;;23.40;;
7613;SDS011;3848;42.016;23.098;2022-10-30T11:22:17;30.83;;;29.07;;
7613;SDS011;3848;42.016;23.098;2022-10-30T11:24:49;25.03;;;23.33;;
7613;SDS011;3848;42.016;23.098;2022-10-30T11:27:16;24.03;;;22.43;;
7613;SDS011;3848;42.016;23.098;2022-10-30T11:29:50;25.53;;;23.57;;
7613;SDS011;3848;42.016;23.098;2022-10-30T11:32:19;25.53;;;24.03;;
7613;SDS011;3848;42.016;23.098;2022-10-30T11:34:50;25.93;;;24.37;;
7613;SDS011;3848;42.016;23.098;2022-10-30T11:37:31;23.97;;;22.47;;
7613;SDS011;3848;42.016;23.098;2022-10-30T11:40:00;24.93;;;23.43;;
7613;SDS011;3848;42.016;23.098;2022-10-30T11:42:29;26.43;;;24.63;;
7613;SDS011;3848;42.016;23.098;2022-10-30T11:44:57;25.90;;;24.23;;
7613;SDS011;3848;42.016;23.098;2022-10-30T11:47:25;25.13;;;23.53;;
7613;SDS011;3848;42.016;23.098;2022-10-30T11:49:57;25.27;;;23.83;;
7613;SDS011;3848;42.016;23.098;2022-10-30T11:52:25;27.17;;;25.53;;
7613;SDS011;3848;42.016;23.098;2022-10-30T11:54:55;27.33;;;25.53;;
7613;SDS011;3848;42.016;23.098;2022-10-30T11:57:26;26.37;;;24.57;;
7613;SDS011;3848;42.016;23.098;2022-10-30T11:59:58;27.10;;;25.33;;
7613;SDS011;3848;42.016;23.098;2022-10-30T12:02:26;27.40;;;25.17;;
7613;SDS011;3848;42.016;23.098;2022-10-30T12:04:55;25.53;;;23.93;;
7613;SDS011;3848;42.016;23.098;2022-10-30T12:07:29;27.10;;;25.47;;
7613;SDS011;3848;42.016;23.098;2022-10-30T12:09:58;27.47;;;25.87;;
7613;SDS011;3848;42.016;23.098;2022-10-30T12:12:26;31.07;;;29.07;;
7613;SDS011;3848;42.016;23.098;2022-10-30T12:15:06;29.47;;;27.67;;
7613;SDS011;3848;42.016;23.098;2022-10-30T12:17:36;28.03;;;26.13;;
7613;SDS011;3848;42.016;23.098;2022-10-30T12:20:05;28.70;;;26.83;;
7613;SDS011;3848;42.016;23.098;2022-10-30T12:22:33;30.53;;;28.27;;
7613;SDS011;3848;42.016;23.098;2022-10-30T12:25:03;31.00;;;29.00;;
7613;SDS011;3848;42.016;23.098;2022-10-30T12:27:33;29.27;;;27.40;;
7613;SDS011;3848;42.016;23.098;2022-10-30T12:30:05;32.37;;;30.27;;
7613;SDS011;3848;42.016;23.098;2022-10-30T12:32:44;31.80;;;29.97;;
7613;SDS011;3848;42.016;23.098;2022-10-30T12:38:15;31.00;;;29.07;;
7613;SDS011;3848;42.016;23.098;2022-10-30T12:40:57;33.17;;;31.17;;
7613;SDS011;3848;42.016;23.098;2022-10-30T12:43:30;31.33;;;29.43;;
7613;SDS011;3848;42.016;23.098;2022-10-30T12:46:03;30.87;;;29.20;;
7613;SDS011;3848;42.016;23.098;2022-10-30T12:48:42;34.47;;;31.63;;
7613;SDS011;3848;42.016;23.098;2022-10-30T12:51:14;34.00;;;31.63;;
7613;SDS011;3848;42.016;23.098;2022-10-30T12:53:45;32.07;;;30.07;;
7613;SDS011;3848;42.016;23.098;2022-10-30T12:56:20;33.30;;;30.80;;
7613;SDS011;3848;42.016;23.098;2022-10-30T12:58:55;33.37;;;30.97;;
7613;SDS011;3848;42.016;23.098;2022-10-30T13:01:31;32.33;;;30.40;;
7613;SDS011;3848;42.016;23.098;2022-10-30T13:04:05;31.73;;;29.97;;
7613;SDS011;3848;42.016;23.098;2022-10-30T13:06:36;31.23;;;29.37;;
7613;SDS011;3848;42.016;23.098;2022-10-30T13:09:12;34.50;;;31.13;;
7613;SDS011;3848;42.016;23.098;2022-10-30T13:11:47;31.20;;;29.40;;
7613;SDS011;3848;42.016;23.098;2022-10-30T13:14:20;33.50;;;31.40;;
7613;SDS011;3848;42.016;23.098;2022-10-30T13:16:50;31.30;;;29.07;;
7613;SDS011;3848;42.016;23.098;2022-10-30T13:19:17;29.80;;;28.03;;
7613;SDS011;3848;42.016;23.098;2022-10-30T13:21:47;30.13;;;28.23;;
7613;SDS011;3848;42.016;23.098;2022-10-30T13:24:22;30.33;;;28.40;;
7613;SDS011;3848;42.016;23.098;2022-10-30T13:26:58;32.50;;;30.43;;
7613;SDS011;3848;42.016;23.098;2022-10-30T13:29:30;29.97;;;28.00;;
7613;SDS011;3848;42.016;23.098;2022-10-30T13:32:13;33.07;;;30.87;;
7613;SDS011;3848;42.016;23.098;2022-10-30T13:34:53;29.73;;;27.87;;
7613;SDS011;3848;42.016;23.098;2022-10-30T13:37:25;30.47;;;28.70;;
7613;SDS011;3848;42.016;23.098;2022-10-30T13:40:04;32.43;;;30.23;;
7613;SDS011;3848;42.016;23.098;2022-10-30T13:42:43;29.67;;;27.87;;
7613;SDS011;3848;42.016;23.098;2022-10-30T13:45:24;31.73;;;29.60;;
7613;SDS011;3848;42.016;23.098;2022-10-30T13:48:04;33.00;;;30.90;;
7613;SDS011;3848;42.016;23.098;2022-10-30T13:50:39;39.03;;;36.10;;
7613;SDS011;3848;42.016;23.098;2022-10-30T13:53:17;33.47;;;31.00;;
7613;SDS011;3848;42.016;23.098;2022-10-30T13:55:47;32.57;;;30.10;;
7613;SDS011;3848;42.016;23.098;2022-10-30T13:58:18;33.53;;;31.33;;
7613;SDS011;3848;42.016;23.098;2022-10-30T14:00:53;32.83;;;30.73;;
7613;SDS011;3848;42.016;23.098;2022-10-30T14:03:30;30.93;;;28.83;;
7613;SDS011;3848;42.016;23.098;2022-10-30T14:06:08;32.00;;;29.90;;
7613;SDS011;3848;42.016;23.098;2022-10-30T14:08:42;32.67;;;30.47;;
7613;SDS011;3848;42.016;23.098;2022-10-30T14:11:18;32.40;;;30.40;;
7613;SDS011;3848;42.016;23.098;2022-10-30T14:13:49;32.73;;;30.60;;
7613;SDS011;3848;42.016;23.098;2022-10-30T14:16:32;32.47;;;30.47;;
7613;SDS011;3848;42.016;23.098;2022-10-30T14:19:01;32.53;;;30.23;;
7613;SDS011;3848;42.016;23.098;2022-10-30T14:21:30;33.33;;;30.40;;
7613;SDS011;3848;42.016;23.098;2022-10-30T14:24:04;32.00;;;28.63;;
7613;SDS011;3848;42.016;23.098;2022-10-30T14:26:43;31.57;;;29.57;;
7613;SDS011;3848;42.016;23.098;2022-10-30T14:35:01;33.63;;;31.33;;
7613;SDS011;3848;42.016;23.098;2022-10-30T14:40:30;35.97;;;32.70;;
7613;SDS011;3848;42.016;23.098;2022-10-30T14:43:02;34.77;;;32.07;;
7613;SDS011;3848;42.016;23.098;2022-10-30T14:45:40;34.10;;;31.60;;
7613;SDS011;3848;42.016;23.098;2022-10-30T14:48:11;32.80;;;30.60;;
7613;SDS011;3848;42.016;23.098;2022-10-30T14:50:50;32.10;;;29.80;;
7613;SDS011;3848;42.016;23.098;2022-10-30T14:53:39;32.70;;;29.40;;
7613;SDS011;3848;42.016;23.098;2022-10-30T14:56:18;33.47;;;30.37;;
7613;SDS011;3848;42.016;23.098;2022-10-30T14:59:07;29.33;;;27.13;;
7613;SDS011;3848;42.016;23.098;2022-10-30T15:01:46;27.83;;;25.90;;
7613;SDS011;3848;42.016;23.098;2022-10-30T15:04:21;29.93;;;27.57;;
7613;SDS011;3848;42.016;23.098;2022-10-30T15:06:59;29.87;;;27.80;;
7613;SDS011;3848;42.016;23.098;2022-10-30T15:09:37;27.77;;;25.90;;